Mounds View, Minnesota
Current Conditions -  °F | °C
As of 3:41 AM on Wednesday 26 Nov 2014 (Local Time) from KANE Reporting Station
Overcast Overcast  
Wind Chill: 17°   Ceiling: 5000
Heat Index: 25°   Visibility: 10mi
Dew Point: 19°   Wind: 7mph
Humidity: 80%   Direction: 70°ENE
Pressure: 30.04"   Gusts: NA
Location:  45.0755°N, 93.1911°W
Report Text: KANE 260941Z AUTO 07006KT 10SM OVC050 M04/M07 A3004 RMK AO2
Loading
Personal Weather Stations






























Interactive Weather Map New forecast layout! Learn more

10-Day Weather Forecast

Advertisements
Track Severe Weather on mobile